Clara — V2CC9 — position and weather

sailwx.info

Track history (hours):
 
Tides and Currents Weather Stations Pressure Air Temp Water Temp Dewpoint Dewpoint Depression Visibility Wind Speed Wind Dir Waves Ship Positions

Clara

Last reported at 2014-Sep-02 20:32 UTC. Time now 2014-Sep-02 23:48 UTC.
Position N 35°57' W 005°22'.

Length 108 m; draft 7 m.

Type: Cargo ship. MMSI: 304983000.

Date/timePositionNaut miles runAvg speedWind from/ knotsBaromVisibWave heightAir tempDewpointWater temp
2014-Sep-02 20:32N 35°57' W 005°22'4 3.6
2014-Sep-02 19:32N 35°54' W 005°19'0 0.0
2014-Sep-02 18:32N 35°54' W 005°19'0 0.0
2014-Sep-02 17:32N 35°54' W 005°19'0 0.0
2014-Sep-02 16:32N 35°54' W 005°19'2 1.8
2014-Sep-02 15:33N 35°55' W 005°18'  
2014-Aug-31 00:13N 37°15' E 006°10'6910.2
2014-Aug-30 17:27N 37°09' E 007°37'1310.9
2014-Aug-30 16:18N 37°00' E 007°48'6 7.8
2014-Aug-30 15:32N 36°54' E 007°47'1 0.6
2014-Aug-30 14:19N 36°54' E 007°46'0 0.0
2014-Aug-30 13:29N 36°54' E 007°46'0 0.0
2014-Aug-30 12:32N 36°54' E 007°46'0 0.0
2014-Aug-30 10:28N 36°54' E 007°46'0 0.0
2014-Aug-30 06:10N 36°54' E 007°46'0 0.0
2014-Aug-30 02:31N 36°54' E 007°46'0 0.0
2014-Aug-30 00:28N 36°54' E 007°46'0 0.0
2014-Aug-29 23:22N 36°54' E 007°46'0 0.0
2014-Aug-29 22:32N 36°54' E 007°46'0 0.0
2014-Aug-29 18:04N 36°54' E 007°46'0 0.0
2014-Aug-29 17:10N 36°54' E 007°46'0 0.0
2014-Aug-29 16:32N 36°54' E 007°46'0 0.0
2014-Aug-29 14:25N 36°54' E 007°46'0 0.1
2014-Aug-29 13:26N 36°54' E 007°46'2 2.3
2014-Aug-29 12:33N 36°55' E 007°48'2 2.5
2014-Aug-29 11:33N 36°56' E 007°50'0 0.0
2014-Aug-29 09:18N 36°57' E 007°50'0 0.0
2014-Aug-29 08:18N 36°57' E 007°50'0 0.0
2014-Aug-27 20:30N 36°56' E 007°50'0 0.0
2014-Aug-27 18:30N 36°56' E 007°50'0 0.0
2014-Aug-27 17:27N 36°56' E 007°50'0 0.0
2014-Aug-27 14:30N 36°56' E 007°50'0 0.0
2014-Aug-27 13:30N 36°56' E 007°50'0 0.0
2014-Aug-27 12:27N 36°56' E 007°50'2 0.2
2014-Aug-27 04:25N 36°56' E 007°48'0 0.0
2014-Aug-27 03:22N 36°56' E 007°48'0 0.0
2014-Aug-27 00:28N 36°56' E 007°48'0 0.0
2014-Aug-26 22:31N 36°56' E 007°48'2 1.9
2014-Aug-26 21:27N 36°58' E 007°50'2311.7
2014-Aug-26 19:28N 37°13' E 007°28'1111.9
2014-Aug-26 18:32N 37°20' E 007°17'9511.8
2014-Aug-26 10:29N 38°24' E 005°49'3411.5
2014-Aug-26 07:32N 38°47' E 005°16'1111.4
2014-Aug-26 06:34N 38°54' E 005°06'1211.3
2014-Aug-26 05:32N 39°02' E 004°54'1111.4
2014-Aug-26 04:33N 39°09' E 004°44'1111.3
2014-Aug-26 03:33N 39°17' E 004°33'1111.3
2014-Aug-26 02:33N 39°24' E 004°22'1511.3
2014-Aug-26 01:16N 39°34' E 004°08'811.2
2014-Aug-26 00:33N 39°40' E 004°00'1111.5
2014-Aug-25 23:33N 39°48' E 003°50'1111.3
2014-Aug-25 22:33N 39°57' E 003°41'1111.0
2014-Aug-25 21:32N 40°06' E 003°32'1111.0
2014-Aug-25 20:33N 40°14' E 003°23'1111.5
2014-Aug-25 19:33N 40°23' E 003°13'1211.7
2014-Aug-25 18:33N 40°31' E 003°03'1211.6
2014-Aug-25 17:33N 40°40' E 002°53'1211.8
2014-Aug-25 16:33N 40°49' E 002°42'1211.8
2014-Aug-25 15:33N 40°58' E 002°32'1111.4
2014-Aug-25 14:33N 41°07' E 002°22'1211.8
2014-Aug-25 13:32N 41°16' E 002°12'5 4.2
2014-Aug-25 12:14N 41°21' E 002°09'0 0.0
2014-Aug-25 11:32N 41°21' E 002°09'0 0.0
2014-Aug-25 08:20N 41°21' E 002°09'0 0.0
2014-Aug-24 22:27N 41°21' E 002°09'  
Track history (hours):
 
Tides and Currents Weather Stations Pressure Air Temp Water Temp Dewpoint Dewpoint Depression Visibility Wind Speed Wind Dir Waves Ship Positions

Clara

Last reported at 2014-Sep-02 20:32 UTC. Time now 2014-Sep-02 23:48 UTC.
Position N 35°57' W 005°22'.

Length 108 m; draft 7 m.

Type: Cargo ship. MMSI: 304983000.

Date/timePositionNaut miles runAvg speedWind from/ knotsBaromVisibWave heightAir tempDewpointWater temp
2014-Sep-02 20:32N 35°57' W 005°22'4 3.6
2014-Sep-02 19:32N 35°54' W 005°19'0 0.0
2014-Sep-02 18:32N 35°54' W 005°19'0 0.0
2014-Sep-02 17:32N 35°54' W 005°19'0 0.0
2014-Sep-02 16:32N 35°54' W 005°19'2 1.8
2014-Sep-02 15:33N 35°55' W 005°18'  
2014-Aug-31 00:13N 37°15' E 006°10'6910.2
2014-Aug-30 17:27N 37°09' E 007°37'1310.9
2014-Aug-30 16:18N 37°00' E 007°48'6 7.8
2014-Aug-30 15:32N 36°54' E 007°47'1 0.6
2014-Aug-30 14:19N 36°54' E 007°46'0 0.0
2014-Aug-30 13:29N 36°54' E 007°46'0 0.0
2014-Aug-30 12:32N 36°54' E 007°46'0 0.0
2014-Aug-30 10:28N 36°54' E 007°46'0 0.0
2014-Aug-30 06:10N 36°54' E 007°46'0 0.0
2014-Aug-30 02:31N 36°54' E 007°46'0 0.0
2014-Aug-30 00:28N 36°54' E 007°46'0 0.0
2014-Aug-29 23:22N 36°54' E 007°46'0 0.0
2014-Aug-29 22:32N 36°54' E 007°46'0 0.0
2014-Aug-29 18:04N 36°54' E 007°46'0 0.0
2014-Aug-29 17:10N 36°54' E 007°46'0 0.0
2014-Aug-29 16:32N 36°54' E 007°46'0 0.0
2014-Aug-29 14:25N 36°54' E 007°46'0 0.1
2014-Aug-29 13:26N 36°54' E 007°46'2 2.3
2014-Aug-29 12:33N 36°55' E 007°48'2 2.5
2014-Aug-29 11:33N 36°56' E 007°50'0 0.0
2014-Aug-29 09:18N 36°57' E 007°50'0 0.0
2014-Aug-29 08:18N 36°57' E 007°50'0 0.0
2014-Aug-27 20:30N 36°56' E 007°50'0 0.0
2014-Aug-27 18:30N 36°56' E 007°50'0 0.0
2014-Aug-27 17:27N 36°56' E 007°50'0 0.0
2014-Aug-27 14:30N 36°56' E 007°50'0 0.0
2014-Aug-27 13:30N 36°56' E 007°50'0 0.0
2014-Aug-27 12:27N 36°56' E 007°50'2 0.2
2014-Aug-27 04:25N 36°56' E 007°48'0 0.0
2014-Aug-27 03:22N 36°56' E 007°48'0 0.0
2014-Aug-27 00:28N 36°56' E 007°48'0 0.0
2014-Aug-26 22:31N 36°56' E 007°48'2 1.9
2014-Aug-26 21:27N 36°58' E 007°50'2311.7
2014-Aug-26 19:28N 37°13' E 007°28'1111.9
2014-Aug-26 18:32N 37°20' E 007°17'9511.8
2014-Aug-26 10:29N 38°24' E 005°49'3411.5
2014-Aug-26 07:32N 38°47' E 005°16'1111.4
2014-Aug-26 06:34N 38°54' E 005°06'1211.3
2014-Aug-26 05:32N 39°02' E 004°54'1111.4
2014-Aug-26 04:33N 39°09' E 004°44'1111.3
2014-Aug-26 03:33N 39°17' E 004°33'1111.3
2014-Aug-26 02:33N 39°24' E 004°22'1511.3
2014-Aug-26 01:16N 39°34' E 004°08'811.2
2014-Aug-26 00:33N 39°40' E 004°00'1111.5
2014-Aug-25 23:33N 39°48' E 003°50'1111.3
2014-Aug-25 22:33N 39°57' E 003°41'1111.0
2014-Aug-25 21:32N 40°06' E 003°32'1111.0
2014-Aug-25 20:33N 40°14' E 003°23'1111.5
2014-Aug-25 19:33N 40°23' E 003°13'1211.7
2014-Aug-25 18:33N 40°31' E 003°03'1211.6
2014-Aug-25 17:33N 40°40' E 002°53'1211.8
2014-Aug-25 16:33N 40°49' E 002°42'1211.8
2014-Aug-25 15:33N 40°58' E 002°32'1111.4
2014-Aug-25 14:33N 41°07' E 002°22'1211.8
2014-Aug-25 13:32N 41°16' E 002°12'5 4.2
2014-Aug-25 12:14N 41°21' E 002°09'0 0.0
2014-Aug-25 11:32N 41°21' E 002°09'0 0.0
2014-Aug-25 08:20N 41°21' E 002°09'0 0.0
2014-Aug-24 22:27N 41°21' E 002°09'  

Dump ship's entire track history